Terminal Aerodrome Forecast
Issued by NWS Hastings, NE

Home | Current Version | Previous Version | Text Only | Print | Product List | Glossary On
Versions: 1 2 3 4 5 6 7 8 9 10 11 12 13 14 15 16 17 18 19 20 21 22 23 24
000
FTUS43 KGID 292321
TAFGRI
TAF
KGRI 292321Z 3000/3024 03017G24KT 6SM -SHRA OVC012
      TEMPO 3000/3004 5SM -SHRA BKN008
     FM300400 01015G23KT P6SM VCSH OVC008
     FM301500 35013KT P6SM OVC015=

USA.gov is the U.S. government's official web portal to all federal, state and local government web resources and services.